createdAt,value
2022-11-13T00:00:02.036Z,95.03
2022-11-13T00:05:02.161Z,95.15
2022-11-13T00:10:02.127Z,95.2
2022-11-13T00:15:02.034Z,95
2022-11-13T00:20:02.123Z,94.98
2022-11-13T00:25:02.062Z,94.84
2022-11-13T00:30:02.099Z,94.32
2022-11-13T00:35:02.176Z,94.17
2022-11-13T00:40:01.966Z,93.96
2022-11-13T00:45:02.091Z,93.78
2022-11-13T00:50:02.207Z,93.74
2022-11-13T00:55:01.480Z,93.29
2022-11-13T01:00:02.108Z,93.09
2022-11-13T01:05:01.662Z,92.67
2022-11-13T01:10:02.020Z,92.42
2022-11-13T01:15:02.233Z,92.38
2022-11-13T01:20:02.095Z,92.57
2022-11-13T01:25:02.037Z,92.8
2022-11-13T01:30:01.415Z,93.06
2022-11-13T01:35:01.747Z,93
2022-11-13T01:40:01.840Z,93.12
2022-11-13T01:45:02.046Z,93.28
2022-11-13T01:50:02.203Z,93.53
2022-11-13T01:55:02.111Z,94
2022-11-13T02:00:01.414Z,93.96
2022-11-13T02:05:02.258Z,93.71
2022-11-13T02:10:01.469Z,93.74
2022-11-13T02:15:02.067Z,93.6
2022-11-13T02:20:02.156Z,93.39
2022-11-13T02:25:01.255Z,93.17
2022-11-13T02:30:01.731Z,93.76
2022-11-13T02:35:01.839Z,93.8
2022-11-13T02:40:01.934Z,94.3
2022-11-13T02:45:02.087Z,94.28
2022-11-13T02:50:02.203Z,93.98
2022-11-13T02:55:01.412Z,93.58
2022-11-13T03:00:01.669Z,93.3
2022-11-13T03:05:13.987Z,93
2022-11-13T03:10:01.976Z,93.26
2022-11-13T03:15:01.283Z,93
2022-11-13T03:20:01.915Z,93.17
2022-11-13T03:25:06.048Z,93.54
2022-11-13T03:30:01.380Z,93.69
2022-11-13T03:35:01.812Z,93.22
2022-11-13T03:40:01.946Z,92.35
2022-11-13T03:45:01.808Z,92.1
2022-11-13T03:50:01.840Z,91.97
2022-11-13T03:55:01.754Z,91.68
2022-11-13T04:00:01.332Z,90.83
2022-11-13T04:05:01.580Z,90.39
2022-11-13T04:10:01.407Z,90.07
2022-11-13T04:15:01.855Z,89.87
2022-11-13T04:20:02.234Z,89.2
2022-11-13T04:25:01.371Z,89.07
2022-11-13T04:30:01.585Z,88.44
2022-11-13T04:35:01.615Z,87.88
2022-11-13T04:40:01.524Z,87.28
2022-11-13T04:45:01.580Z,87.46
2022-11-13T04:50:01.852Z,87.6
2022-11-13T04:55:01.510Z,87.54
2022-11-13T05:00:01.924Z,87.43
2022-11-13T05:05:04.893Z,87.62
2022-11-13T05:10:01.819Z,88.5
2022-11-13T05:15:02.186Z,89
2022-11-13T05:20:01.269Z,88.62
2022-11-13T05:25:01.525Z,88.64
2022-11-13T05:30:01.937Z,89.44
2022-11-13T05:35:02.080Z,88.8
2022-11-13T05:40:01.478Z,88.12
2022-11-13T05:45:01.645Z,87.3
2022-11-13T05:50:01.693Z,86.84
2022-11-13T05:55:01.580Z,86.31
2022-11-13T06:00:01.749Z,85.37
2022-11-13T06:05:02.034Z,85.43
2022-11-13T06:10:02.236Z,85.54
2022-11-13T06:15:02.251Z,85.75
2022-11-13T06:20:01.387Z,86.4
2022-11-13T06:25:01.919Z,86.63
2022-11-13T06:30:01.865Z,86.8
2022-11-13T06:35:02.110Z,87.23
2022-11-13T06:40:02.004Z,87.78
2022-11-13T06:45:01.471Z,88.8
2022-11-13T06:50:01.375Z,89.14
2022-11-13T06:55:01.825Z,89.46
2022-11-13T07:00:02.147Z,89.29
2022-11-13T07:05:01.288Z,89.26
2022-11-13T07:10:02.124Z,89.1
2022-11-13T07:15:02.254Z,88.81
2022-11-13T07:20:01.491Z,88.49
2022-11-13T07:25:01.733Z,87.56
2022-11-13T07:30:03.923Z,86.27
2022-11-13T07:35:01.984Z,86.1
2022-11-13T07:40:02.180Z,85.87
2022-11-13T07:45:02.215Z,86.16
2022-11-13T07:50:07.040Z,85.46
2022-11-13T07:55:02.143Z,85.98
2022-11-13T08:00:01.610Z,83.98
2022-11-13T08:05:02.044Z,82.86
2022-11-13T08:10:01.336Z,84.38
2022-11-13T08:15:01.306Z,82.79
2022-11-13T08:20:02.140Z,83.06
2022-11-13T08:25:01.813Z,83.19
2022-11-13T08:30:02.185Z,87.45
2022-11-13T08:35:02.124Z,89.2
2022-11-13T08:40:02.195Z,90.65
2022-11-13T08:45:01.920Z,91.03
2022-11-13T08:50:02.000Z,89.31
2022-11-13T08:55:02.013Z,87.75
2022-11-13T09:00:01.889Z,84.03
2022-11-13T09:05:02.221Z,82.69
2022-11-13T09:10:01.640Z,81.36
2022-11-13T09:15:01.880Z,78.62
2022-11-13T09:20:04.180Z,75.11
2022-11-13T09:25:01.447Z,74.06
2022-11-13T09:30:01.729Z,72.85
2022-11-13T09:35:01.765Z,71.41
2022-11-13T09:40:01.718Z,71.41
2022-11-13T09:45:01.498Z,72.08
2022-11-13T09:50:01.862Z,71.14
2022-11-13T09:55:02.204Z,71.63
2022-11-13T10:00:02.138Z,71.05
2022-11-13T10:05:02.168Z,69.48
2022-11-13T10:10:02.220Z,69.05
2022-11-13T10:15:02.161Z,69.06
2022-11-13T10:20:01.297Z,69.16
2022-11-13T10:25:01.497Z,68.34
2022-11-13T10:30:01.800Z,68.06
2022-11-13T10:35:01.933Z,69.73
2022-11-13T10:40:01.817Z,66.77
2022-11-13T10:45:01.323Z,68.13
2022-11-13T10:50:01.461Z,66.64
2022-11-13T10:55:01.411Z,67
2022-11-13T11:00:01.633Z,66.02
2022-11-13T11:05:02.066Z,66.06
2022-11-13T11:10:02.154Z,70.2
2022-11-13T11:15:01.933Z,66.96
2022-11-13T11:20:02.219Z,65.18
2022-11-13T11:25:01.315Z,63.99
2022-11-13T11:30:01.466Z,62.72
2022-11-13T11:35:01.683Z,62.68
2022-11-13T11:40:01.762Z,61.96
2022-11-13T11:45:01.807Z,61.62
2022-11-13T11:50:01.850Z,61
2022-11-13T11:55:01.905Z,60.51
2022-11-13T12:00:01.859Z,60.94
2022-11-13T12:05:02.067Z,60.29
2022-11-13T12:10:02.029Z,60.09
2022-11-13T12:15:02.100Z,59.85
2022-11-13T12:20:01.909Z,60.34
2022-11-13T12:25:01.896Z,58.62
2022-11-13T12:30:02.036Z,59.2
2022-11-13T12:35:02.238Z,58.75
2022-11-13T12:40:02.073Z,61.23
2022-11-13T12:45:01.295Z,58.57
2022-11-13T12:50:01.268Z,59.83
2022-11-13T12:55:01.440Z,60.43
2022-11-13T13:00:01.576Z,62.09
2022-11-13T13:05:01.741Z,61.58
2022-11-13T13:10:01.896Z,60.84
2022-11-13T13:15:01.860Z,63.19
2022-11-13T13:20:01.938Z,61.51
2022-11-13T13:25:01.954Z,62.52
2022-11-13T13:30:01.949Z,60.2
2022-11-13T13:35:02.007Z,58.91
2022-11-13T13:40:02.089Z,56.98
2022-11-13T13:45:01.948Z,56.49
2022-11-13T13:50:01.931Z,56.76
2022-11-13T13:55:01.938Z,58.84
2022-11-13T14:00:01.988Z,58.6
2022-11-13T14:05:02.196Z,58.21
2022-11-13T14:10:01.623Z,59.72
2022-11-13T14:15:01.724Z,62
2022-11-13T14:20:02.141Z,59.35
2022-11-13T14:25:02.310Z,57.98
2022-11-13T14:30:02.132Z,59.6
2022-11-13T14:35:01.579Z,60.12
2022-11-13T14:40:02.198Z,60.88
2022-11-13T14:45:01.984Z,61.76
2022-11-13T14:50:02.065Z,61.21
2022-11-13T14:55:14.839Z,61.47
2022-11-13T15:00:02.212Z,60.44
2022-11-13T15:05:01.347Z,62.09
2022-11-13T15:10:02.183Z,61.52
2022-11-13T15:15:01.990Z,61.52
2022-11-13T15:20:08.255Z,64
2022-11-13T15:25:02.105Z,65.28
2022-11-13T15:30:02.374Z,67.61
2022-11-13T15:35:02.041Z,71.05
2022-11-13T15:40:02.168Z,69.89
2022-11-13T15:45:01.595Z,72.04
2022-11-13T15:50:16.586Z,74.34
2022-11-13T15:55:01.754Z,75.36
2022-11-13T16:00:02.063Z,76.42
2022-11-13T16:05:01.575Z,78.15
2022-11-13T16:10:01.807Z,79.41
2022-11-13T16:15:01.960Z,79.58
2022-11-13T16:20:01.358Z,79.09
2022-11-13T16:25:01.409Z,79.41
2022-11-13T16:30:06.622Z,80.78
2022-11-13T16:35:02.070Z,81.94
2022-11-13T16:40:01.747Z,82.03
2022-11-13T16:45:01.333Z,80.76
2022-11-13T16:50:01.675Z,80.35
2022-11-13T16:55:06.347Z,80.14
2022-11-13T17:00:01.777Z,78.6
2022-11-13T17:05:01.270Z,79.99
2022-11-13T17:10:29.780Z,81.09
2022-11-13T17:15:01.478Z,80.5
2022-11-13T17:20:02.020Z,81.98
2022-11-13T17:25:01.884Z,83.28
2022-11-13T17:30:02.067Z,81.62
2022-11-13T17:35:02.110Z,81.41
2022-11-13T17:40:01.350Z,81.31
2022-11-13T17:45:01.767Z,80.15
2022-11-13T17:50:06.672Z,79.32
2022-11-13T17:55:01.291Z,80.1
2022-11-13T18:00:01.661Z,81.51
2022-11-13T18:05:02.048Z,82.73
2022-11-13T18:10:02.159Z,80.11
2022-11-13T18:15:02.056Z,75.84
2022-11-13T18:20:02.207Z,74.16
2022-11-13T18:25:02.238Z,73.57
2022-11-13T18:30:01.365Z,73.28
2022-11-13T18:35:01.562Z,74.23
2022-11-13T18:40:01.439Z,75.54
2022-11-13T18:45:05.759Z,77.3
2022-11-13T18:50:01.830Z,78.87
2022-11-13T18:55:01.979Z,77.64
2022-11-13T19:00:02.104Z,78.61
2022-11-13T19:05:02.262Z,78.61
2022-11-13T19:10:01.918Z,77.52
2022-11-13T19:15:01.988Z,79.05
2022-11-13T19:20:02.196Z,80.35
2022-11-13T19:25:02.220Z,83.37
2022-11-13T19:30:02.014Z,83.89
2022-11-13T19:35:02.025Z,86.27
2022-11-13T19:40:01.915Z,86.25
2022-11-13T19:45:01.962Z,84.8
2022-11-13T19:50:02.026Z,82.33
2022-11-13T19:55:01.518Z,82.28
2022-11-13T20:00:02.277Z,81.35
2022-11-13T20:05:01.966Z,80.46
2022-11-13T20:10:02.015Z,79.8
2022-11-13T20:15:02.284Z,78.82
2022-11-13T20:20:01.280Z,77.53
2022-11-13T20:25:02.042Z,76.88
2022-11-13T20:30:02.235Z,76.87
2022-11-13T20:35:01.639Z,76.6
2022-11-13T20:40:01.476Z,75.49
2022-11-13T20:45:01.840Z,76.24
2022-11-13T20:50:02.112Z,76.87
2022-11-13T20:55:01.497Z,76.56
2022-11-13T21:00:01.922Z,76.52
2022-11-13T21:05:01.637Z,77.03
2022-11-13T21:10:01.672Z,77.73
2022-11-13T21:15:01.636Z,78.47
2022-11-13T21:20:01.566Z,79.33
2022-11-13T21:25:01.897Z,80.14
2022-11-13T21:30:02.535Z,80.8
2022-11-13T21:35:01.413Z,81.56
2022-11-13T21:40:01.321Z,81.51
2022-11-13T21:45:02.263Z,82.25
2022-11-13T21:50:01.608Z,82.54
2022-11-13T21:55:01.370Z,83.53
2022-11-13T22:00:01.742Z,84.98
2022-11-13T22:05:02.011Z,86.07
2022-11-13T22:10:06.914Z,87.08
2022-11-13T22:15:01.600Z,87.9
2022-11-13T22:20:01.582Z,88.33
2022-11-13T22:25:01.722Z,88.94
2022-11-13T22:30:01.659Z,89.55
2022-11-13T22:35:01.247Z,90.16
2022-11-13T22:40:02.189Z,90.82
2022-11-13T22:45:01.610Z,91.41
2022-11-13T22:50:01.681Z,91.26
2022-11-13T22:55:01.989Z,89.2
2022-11-13T23:00:04.363Z,87.53
2022-11-13T23:05:01.937Z,87.19
2022-11-13T23:10:01.778Z,87.96
2022-11-13T23:15:02.067Z,88.52
2022-11-13T23:20:02.018Z,89.45
2022-11-13T23:25:01.385Z,90.23
2022-11-13T23:30:01.940Z,91.05
2022-11-13T23:35:01.891Z,91.4
2022-11-13T23:40:02.067Z,90.29
2022-11-13T23:45:01.773Z,88.31
2022-11-13T23:50:01.865Z,86.52
2022-11-13T23:55:01.881Z,85.11
